Data for 11/20/2016

Time Sea-Level Adjusted Pressure Absolute Pressure Temperature Relative Humidity Dew Point   
(mb) (inHg) (mb) (inHg) (C) (F) (%) (C) (F)
00:05 1016 30 845 24.95 4.2 39.5 52 -4.7 23.5
00:10 1016 30 845 24.95 4.7 40.4 49 -5.2 22.7
00:15 1016 30 845 24.95 5 40.9 41 -7.1 19.2
00:20 1016 30 845 24.95 5.6 42.2 41 -6.5 20.2
00:25 1016 30 845 24.95 5.7 42.3 40 -6.7 19.9
00:30 1016 30 845 24.95 5.6 42.1 40 -6.9 19.5
00:35 1016 30 845 24.95 5.9 42.7 38 -7.3 18.9
00:40 1016 30 845 24.95 6.3 43.3 34 -8.4 16.8
00:45 1016 30 845 24.95 7 44.6 35 -7.5 18.6
00:50 1016 30 845 24.95 6.3 43.4 40 -6.2 20.8
00:55 1016 30 845 24.95 5.7 42.3 41 -6.6 20.1
01:00 1016 30 845 24.95 5.5 41.8 42 -6.5 20.2
01:05 1016 30 845 24.95 5.1 41.3 43 -6.4 20.5
01:10 1016 30 845 24.95 5 41 45 -6.1 21.1
01:15 1016 30 846 24.98 5.1 41.2 43 -6.5 20.4
01:20 1016 30 845 24.95 5.4 41.8 40 -7 19.5
01:25 1016 30 845 24.95 5.7 42.2 41 -6.5 20.4
01:30 1016 30 845 24.95 5.6 42.1 41 -6.7 19.9
01:35 1016 30 845 24.95 5.6 42 41 -6.5 20.3
01:40 1016 30 845 24.95 5.4 41.8 41 -6.6 20
01:45 1016 30 845 24.95 5.5 41.8 42 -6.5 20.2
01:50 1016 30 845 24.95 5.3 41.6 43 -6.4 20.4
01:55 1016 30 845 24.95 5.4 41.7 41 -6.9 19.6
02:00 1016 30 845 24.95 5.6 42.2 41 -6.6 20.1
02:05 1016 30 845 24.95 5.8 42.4 41 -6.6 20.1
02:10 1016 30 845 24.95 5.9 42.6 41 -6.3 20.7
02:15 1016 30 845 24.95 5.8 42.5 41 -6.5 20.4
02:20 1016 30 845 24.95 5.8 42.5 43 -5.9 21.4
02:25 1016 30 845 24.95 5.5 41.9 45 -5.6 21.9
02:30 1016 30 845 24.95 5.4 41.7 46 -5.2 22.6
02:35 1016 30 845 24.95 5.7 42.2 42 -6.3 20.6
02:40 1016 30 845 24.95 5.7 42.3 42 -6.2 20.8
02:45 1016 30 845 24.95 5.7 42.3 41 -6.5 20.4
02:50 1016 30 845 24.95 5.7 42.3 45 -5.2 22.6
02:55 1016 30 845 24.95 5.5 41.9 45 -5.6 21.9
03:00 1016 30 845 24.95 5.7 42.3 40 -6.9 19.5
03:05 1016 30 845 24.95 6 42.8 40 -6.7 20
03:10 1016 30 845 24.95 6 42.9 39 -6.8 19.7
03:15 1016 30 845 24.95 6 42.8 40 -6.5 20.3
03:20 1016 30 845 24.95 5.9 42.7 40 -6.5 20.3
03:25 1016 30 845 24.95 5.9 42.7 38 -7.2 19
03:30 1016 30 845 24.95 6.3 43.3 37 -7.5 18.6
03:35 1016 30 845 24.95 6.4 43.5 37 -7.4 18.7
03:40 1016 30 845 24.95 6.4 43.5 37 -7.3 18.8
03:45 1016 30 845 24.95 6.2 43.2 39 -6.9 19.6
03:50 1016 30 846 24.98 6.2 43.2 38 -7.1 19.2
03:55 1016 30 846 24.98 6.2 43.2 38 -7.1 19.1
04:00 1016 30 846 24.98 6.2 43.2 39 -6.8 19.8
04:05 1016 30 845 24.95 6 42.8 41 -6.4 20.5
04:10 1016 30 845 24.95 6 42.9 37 -7.7 18.1
04:15 1016 30 845 24.95 6.2 43.2 38 -6.9 19.5
04:20 1016 30 845 24.95 6.3 43.4 37 -7.4 18.6
04:25 1016 30 845 24.95 6.4 43.6 36 -7.7 18.2
04:30 1016 30 845 24.95 6.4 43.5 37 -7.3 18.8
04:35 1016 30 845 24.95 6.3 43.3 39 -6.8 19.8
04:40 1016 30 845 24.95 6 42.9 39 -6.9 19.6
04:45 1016 30 845 24.95 5.8 42.5 40 -6.7 20
04:50 1016 30 845 24.95 5.7 42.2 39 -7.1 19.3
04:55 1016 30 845 24.95 5.9 42.7 38 -7.3 18.8
05:00 1016 30 845 24.95 6.1 43 39 -6.9 19.6
05:05 1016 30 845 24.95 6.2 43.2 38 -7.3 18.9
05:10 1016 30 845 24.95 6.2 43.2 38 -6.9 19.6
05:15 1016 30 845 24.95 6.1 42.9 40 -6.6 20.1
05:20 1016 30 845 24.95 6 42.7 40 -6.5 20.3
05:25 1016 30 845 24.95 5.9 42.7 40 -6.6 20
05:30 1016 30 845 24.95 6 42.8 41 -6.4 20.5
05:35 1016 30 845 24.95 5.9 42.6 42 -6.1 21
05:40 1016 30 845 24.95 5.8 42.5 40 -6.6 20.1
05:45 1016 30 846 24.98 6 42.8 38 -7.2 19.1
05:50 1016 30 846 24.98 6.1 43 38 -7.3 18.8
05:55 1016 30 846 24.98 6.2 43.2 39 -6.9 19.6
06:00 1016 30 846 24.98 6 42.9 39 -6.8 19.8
06:05 1016 30 846 24.98 6 42.7 39 -6.8 19.7
06:10 1016 30 846 24.98 5.9 42.7 39 -6.9 19.5
06:15 1016 30 846 24.98 6 42.9 39 -7 19.3
06:20 1016 30 846 24.98 6.1 43 38 -7.1 19.3
06:25 1016 30 846 24.98 6.2 43.2 39 -6.7 20
06:30 1016 30 846 24.98 6 42.9 42 -6.1 21.1
06:35 1016 30 846 24.98 5.7 42.3 43 -5.8 21.6
06:40 1016 30 846 24.98 5.5 41.9 44 -5.9 21.5
06:45 1017 30.03 846 24.98 5.4 41.7 44 -6 21.2
06:50 1017 30.03 846 24.98 5.3 41.6 41 -6.7 19.9
06:55 1016 30 846 24.98 5.6 42.2 41 -6.5 20.3
07:00 1017 30.03 846 24.98 5.8 42.5 41 -6.4 20.5
07:05 1016 30 846 24.98 5.9 42.6 41 -6.5 20.3
07:10 1016 30 846 24.98 6.1 43 39 -6.7 19.9
07:15 1016 30 846 24.98 6.3 43.3 41 -6.1 21.1
07:20 1016 30 846 24.98 6.1 43 44 -5.3 22.4
07:25 1016 30 846 24.98 5.8 42.4 41 -6.4 20.5
07:30 1016 30 846 24.98 6 42.7 40 -6.5 20.2
07:35 1016 30 846 24.98 5.9 42.6 42 -6 21.2
07:40 1016 30 846 24.98 5.8 42.4 42 -6 21.2
07:45 1016 30 846 24.98 5.7 42.3 41 -6.6 20.1
07:50 1016 30 846 24.98 5.8 42.5 42 -6.1 21.1
07:55 1016 30 846 24.98 5.7 42.2 41 -6.4 20.5
08:00 1016 30 846 24.98 6 42.7 41 -6.4 20.4
08:05 1016 30 846 24.98 6.3 43.3 39 -6.6 20.1
08:10 1016 30 845 24.95 6.4 43.5 40 -6.3 20.6
08:15 1016 30 845 24.95 6.2 43.2 41 -5.9 21.4
08:20 1016 30 846 24.98 6.1 43 41 -6 21.1
08:25 1016 30 846 24.98 6.2 43.1 41 -6.2 20.8
08:30 1017 30.03 846 24.98 6.3 43.3 41 -6.1 21
08:35 1017 30.03 846 24.98 6.1 43 42 -5.8 21.6
08:40 1017 30.03 846 24.98 5.9 42.6 44 -5.3 22.4
08:45 1017 30.03 846 24.98 5.6 42.1 46 -5.2 22.6
08:50 1017 30.03 846 24.98 5.6 42 47 -4.8 23.4
08:55 1017 30.03 846 24.98 5.3 41.6 48 -4.8 23.3
09:00 1017 30.03 846 24.98 5.3 41.6 49 -4.7 23.6
09:05 1017 30.03 846 24.98 5.2 41.3 48 -4.9 23.1
09:10 1017 30.03 846 24.98 5.4 41.7 45 -5.5 22.1
09:15 1017 30.03 846 24.98 5.6 42 45 -5.3 22.4
09:20 1017 30.03 846 24.98 5.6 42 46 -5.3 22.5
09:25 1017 30.03 846 24.98 5.6 42 46 -5.2 22.7
09:30 1017 30.03 846 24.98 5.6 42.1 45 -5.4 22.4
09:35 1017 30.03 846 24.98 5.8 42.4 46 -4.9 23.1
09:40 1017 30.03 846 24.98 5.7 42.3 47 -4.7 23.6
09:45 1017 30.03 846 24.98 5.8 42.4 47 -4.7 23.5
09:50 1017 30.03 846 24.98 6 42.7 47 -4.6 23.8
09:55 1017 30.03 846 24.98 6.2 43.1 45 -5 23.1
10:00 1017 30.03 846 24.98 6.5 43.7 44 -4.7 23.5
10:05 1017 30.03 846 24.98 6.5 43.7 46 -4.3 24.2
10:10 1017 30.03 846 24.98 6.3 43.3 46 -4.4 24
10:15 1017 30.03 846 24.98 6.3 43.4 45 -4.8 23.3
10:20 1017 30.03 846 24.98 6.4 43.5 46 -4.4 24.1
10:25 1017 30.03 846 24.98 6.4 43.5 45 -4.8 23.3
10:30 1017 30.03 846 24.98 6.4 43.6 45 -4.5 23.9
10:35 1017 30.03 846 24.98 6.5 43.7 44 -4.8 23.3
10:40 1017 30.03 846 24.98 6.6 43.9 46 -4.3 24.3
10:45 1017 30.03 846 24.98 6.8 44.3 43 -4.8 23.4
10:50 1017 30.03 846 24.98 7 44.6 43 -4.8 23.4
10:55 1017 30.03 846 24.98 7.1 44.9 43 -4.6 23.7
11:00 1017 30.03 846 24.98 7.3 45.1 42 -4.7 23.5
11:05 1017 30.03 846 24.98 7.4 45.3 42 -4.7 23.5
11:10 1017 30.03 846 24.98 7.6 45.7 41 -5 23.1
11:15 1017 30.03 846 24.98 7.8 46 38 -5.7 21.7
11:20 1017 30.03 846 24.98 7.9 46.2 40 -5 23
11:25 1017 30.03 846 24.98 8 46.3 40 -5 23.1
11:30 1017 30.03 846 24.98 8.1 46.6 39 -4.9 23.2
11:35 1017 30.03 846 24.98 8.4 47.1 38 -5 23
11:40 1017 30.03 846 24.98 8.6 47.4 36 -5.8 21.6
11:45 1017 30.03 846 24.98 8.7 47.6 38 -4.9 23.1
11:50 1017 30.03 846 24.98 8.7 47.6 38 -5 23
11:55 1017 30.03 846 24.98 8.7 47.6 38 -4.9 23.2
12:00 1017 30.03 846 24.98 8.7 47.7 37 -5 23
12:05 1017 30.03 846 24.98 8.9 47.9 37 -5.2 22.7
12:10 1017 30.03 846 24.98 9.1 48.4 36 -5.3 22.5
12:15 1016 30 846 24.98 9.4 48.9 34 -5.6 21.9
12:20 1016 30 846 24.98 9.7 49.5 31 -6.6 20.2
12:25 1016 30 845 24.95 10 49.9 32 -5.9 21.3
12:30 1016 30 845 24.95 10.3 50.5 32 -5.8 21.5
12:35 1016 30 845 24.95 10.6 51 31 -6 21.3
12:40 1016 30 845 24.95 10.8 51.4 31 -5.7 21.7
12:45 1016 30 845 24.95 11 51.7 30 -5.9 21.5
12:50 1016 30 845 24.95 11.3 52.3 30 -5.6 21.9
12:55 1016 30 845 24.95 11.6 53 28 -6.1 20.9
13:00 1016 30 845 24.95 11.8 53.2 28 -5.9 21.3
13:05 1016 30 845 24.95 12 53.6 27 -6.1 20.9
13:10 1016 30 845 24.95 12.3 54.1 28 -5.8 21.5
13:15 1016 30 845 24.95 12.3 54.1 26 -6.6 20.1
13:20 1016 30 845 24.95 12.5 54.5 24 -7.6 18.3
13:25 1016 30 845 24.95 12.7 54.9 25 -6.7 19.9
13:30 1016 30 845 24.95 13.1 55.6 24 -7.2 19
13:35 1016 30 845 24.95 13.4 56.1 22 -7.7 18.1
13:40 1016 30 845 24.95 13.2 55.7 23 -7.6 18.3
13:45 1016 30 845 24.95 13.3 55.9 23 -7.4 18.7
13:50 1015 29.97 845 24.95 12.7 54.9 29 -4.8 23.3
13:55 1015 29.97 845 24.95 12.5 54.4 28 -5.5 22.2
14:00 1015 29.97 845 24.95 12.7 54.8 30 -4.5 23.9
14:05 1015 29.97 844 24.92 13 55.5 30 -4.1 24.6
14:10 1015 29.97 844 24.92 13.1 55.5 29 -4.3 24.2
14:15 1015 29.97 844 24.92 12 53.5 31 -4.5 23.9
14:20 1015 29.97 844 24.92 11.9 53.4 32 -4.3 24.3
14:25 1015 29.97 844 24.92 11.6 52.9 33 -3.9 24.9
14:30 1015 29.97 844 24.92 11.1 51.9 34 -4.1 24.7
14:35 1015 29.97 844 24.92 10.8 51.4 35 -3.9 24.9
14:40 1015 29.97 844 24.92 10.8 51.5 36 -3.7 25.4
14:45 1015 29.97 844 24.92 11 51.9 34 -4.1 24.6
14:50 1015 29.97 844 24.92 11.1 52 36 -3.2 26.2
14:55 1015 29.97 844 24.92 11 51.9 37 -3 26.5
15:00 1015 29.97 844 24.92 10.8 51.5 37 -3.3 26.1
15:05 1015 29.97 844 24.92 10.7 51.3 38 -3 26.7
15:10 1015 29.97 844 24.92 10.3 50.6 39 -3 26.6
15:15 1015 29.97 844 24.92 10.1 50.2 38 -3.4 25.8
15:20 1015 29.97 844 24.92 10.1 50.2 37 -4 24.8
15:25 1015 29.97 844 24.92 10.2 50.3 36 -4.3 24.2
15:30 1015 29.97 844 24.92 10.3 50.5 33 -5.2 22.6
15:35 1015 29.97 844 24.92 9.9 49.9 34 -5.1 22.9
15:40 1015 29.97 844 24.92 9.8 49.6 34 -5.5 22.2
15:45 1014 29.94 844 24.92 9.9 49.9 33 -5.6 21.9
15:50 1014 29.94 844 24.92 9.9 49.8 34 -5.4 22.3
15:55 1014 29.94 844 24.92 9.9 49.9 33 -5.4 22.2
16:00 1014 29.94 844 24.92 9.8 49.7 37 -4.2 24.4
16:05 1014 29.94 844 24.92 9.5 49 39 -3.8 25.2
16:10 1014 29.94 843 24.89 9.2 48.5 39 -4.2 24.5
16:15 1014 29.94 843 24.89 9.3 48.7 41 -3.1 26.3
16:20 1014 29.94 843 24.89 9.3 48.7 43 -2.6 27.2
16:25 1014 29.94 843 24.89 9.2 48.6 42 -3 26.5
16:30 1014 29.94 843 24.89 9.3 48.7 39 -3.8 25.1
16:35 1014 29.94 843 24.89 9.2 48.6 42 -2.8 26.9
16:40 1014 29.94 843 24.89 9.3 48.7 43 -2.6 27.3
16:45 1014 29.94 843 24.89 9.4 48.9 44 -2.3 27.9
16:50 1014 29.94 843 24.89 9.3 48.7 45 -2 28.4
16:55 1014 29.94 843 24.89 9.3 48.7 46 -1.8 28.8
17:00 1014 29.94 843 24.89 9.2 48.5 46 -1.9 28.6
17:05 1014 29.94 843 24.89 9.2 48.5 42 -3.1 26.4
17:10 1014 29.94 843 24.89 9 48.3 46 -1.8 28.7
17:15 1014 29.94 843 24.89 8.8 47.8 46 -2 28.3
17:20 1014 29.94 843 24.89 8.7 47.6 48 -1.8 28.8
17:25 1014 29.94 843 24.89 8.5 47.3 47 -2.2 28
17:30 1014 29.94 843 24.89 8.5 47.2 45 -2.6 27.3
17:35 1014 29.94 843 24.89 8.5 47.2 42 -3.7 25.4
17:40 1014 29.94 843 24.89 8.7 47.6 42 -3.4 25.9
17:45 1014 29.94 843 24.89 8.6 47.5 42 -3.5 25.8
17:50 1014 29.94 843 24.89 8.5 47.4 46 -2.5 27.6
17:55 1014 29.94 843 24.89 8.4 47.1 45 -2.8 27
18:00 1014 29.94 843 24.89 8.3 46.9 45 -3 26.6
18:05 1014 29.94 843 24.89 8.5 47.4 44 -2.8 26.9
18:10 1013 29.91 843 24.89 8.4 47.2 43 -3.4 25.9
18:15 1013 29.91 843 24.89 8.4 47.1 44 -3.3 26.1
18:20 1013 29.91 843 24.89 8.3 46.9 42 -3.8 25.2
18:25 1013 29.91 843 24.89 8.4 47.2 43 -3.4 25.9
18:30 1013 29.91 843 24.89 7.9 46.2 44 -3.6 25.5
18:35 1013 29.91 842 24.86 7.7 45.9 44 -3.8 25.1
18:40 1013 29.91 842 24.86 7.8 46.1 42 -4.3 24.3
18:45 1013 29.91 842 24.86 7.8 46.1 39 -5.2 22.6
18:50 1013 29.91 842 24.86 8.1 46.6 38 -5.4 22.3
18:55 1013 29.91 842 24.86 8 46.4 38 -5.3 22.4
19:00 1013 29.91 842 24.86 7.8 46 39 -5.4 22.3
19:05 1013 29.91 842 24.86 7.5 45.5 39 -5.4 22.3
19:10 1013 29.91 842 24.86 7.4 45.4 39 -5.5 22.1
19:15 1013 29.91 842 24.86 7.7 45.8 36 -6.5 20.3
19:20 1013 29.91 842 24.86 8.1 46.6 35 -6.5 20.2
19:25 1013 29.91 842 24.86 8.1 46.6 35 -6.5 20.3
19:30 1013 29.91 842 24.86 8 46.4 37 -6 21.3
19:35 1013 29.91 842 24.86 7.9 46.2 36 -6.2 20.9
19:40 1013 29.91 842 24.86 7.9 46.2 34 -7.1 19.3
19:45 1013 29.91 842 24.86 8.1 46.6 33 -7.1 19.3
19:50 1013 29.91 842 24.86 8.2 46.7 34 -6.8 19.8
19:55 1013 29.91 842 24.86 8.2 46.8 34 -6.8 19.8
20:00 1013 29.91 842 24.86 8.1 46.6 35 -6.6 20.1
20:05 1013 29.91 842 24.86 8 46.4 34 -6.8 19.7
20:10 1013 29.91 842 24.86 8 46.4 36 -6.3 20.7
20:15 1013 29.91 842 24.86 7.8 46.1 34 -7 19.3
20:20 1012 29.88 842 24.86 7.9 46.2 34 -7.2 19.1
20:25 1012 29.88 842 24.86 8.1 46.5 33 -7.3 18.9
20:30 1012 29.88 842 24.86 8.3 47 32 -7.4 18.6
20:35 1012 29.88 841 24.83 8.3 47 32 -7.5 18.6
20:40 1012 29.88 841 24.83 8.2 46.8 33 -7.2 19
20:45 1012 29.88 841 24.83 8.2 46.7 33 -7.1 19.2
20:50 1012 29.88 841 24.83 8 46.3 34 -7.1 19.3
20:55 1012 29.88 841 24.83 8 46.3 33 -7.3 18.8
21:00 1012 29.88 841 24.83 8.3 46.9 32 -7.6 18.3
21:05 1012 29.88 841 24.83 8.5 47.3 31 -7.7 18.2
21:10 1012 29.88 841 24.83 8.7 47.6 31 -7.5 18.5
21:15 1012 29.88 841 24.83 8.8 47.8 30 -8 17.6
21:20 1012 29.88 841 24.83 9 48.2 31 -7.4 18.7
21:25 1012 29.88 841 24.83 9 48.3 30 -7.8 17.9
21:30 1012 29.88 841 24.83 9 48.2 30 -7.6 18.3
21:35 1012 29.88 841 24.83 8.8 47.9 31 -7.5 18.6
21:40 1012 29.88 841 24.83 8.6 47.6 32 -7.2 19
21:45 1012 29.88 841 24.83 8.7 47.6 31 -7.6 18.3
21:50 1012 29.88 841 24.83 8.9 48 30 -7.8 18
21:55 1012 29.88 841 24.83 9 48.2 31 -7.1 19.2
22:00 1012 29.88 841 24.83 8.7 47.7 32 -7.2 19.1
22:05 1012 29.88 841 24.83 8.6 47.4 33 -6.8 19.7
22:10 1012 29.88 841 24.83 8.5 47.3 34 -6.6 20.2
22:15 1012 29.88 841 24.83 8.1 46.6 36 -6.2 20.8
22:20 1012 29.88 841 24.83 7.7 45.9 36 -6.2 20.8
22:25 1012 29.88 841 24.83 7.7 45.8 39 -5.5 22.2
22:30 1012 29.88 841 24.83 7.5 45.4 39 -5.6 21.9
22:35 1012 29.88 841 24.83 7.6 45.6 34 -7.3 18.8
22:40 1012 29.88 841 24.83 8.5 47.2 34 -6.6 20.1
22:45 1012 29.88 841 24.83 8.1 46.5 39 -5 23
22:50 1012 29.88 841 24.83 7.5 45.6 39 -5.7 21.8
22:55 1012 29.88 841 24.83 7.7 45.9 36 -6.3 20.6
23:00 1012 29.88 841 24.83 7.8 46.1 37 -5.9 21.4
23:05 1012 29.88 841 24.83 7.7 45.9 37 -6 21.2
23:10 1012 29.88 841 24.83 7.6 45.8 40 -5.1 22.8
23:15 1012 29.88 841 24.83 7.1 44.8 41 -5.3 22.5
23:20 1012 29.88 841 24.83 6.6 43.9 43 -5 22.9
23:25 1012 29.88 841 24.83 6.2 43.2 44 -5.2 22.7
23:30 1012 29.88 841 24.83 6.1 43 44 -5.2 22.7
23:35 1012 29.88 841 24.83 6.1 43 44 -5.3 22.5
23:40 1012 29.88 841 24.83 6.1 43 46 -4.5 23.9
23:45 1012 29.88 841 24.83 6 42.8 47 -4.6 23.8
23:50 1012 29.88 841 24.83 5.7 42.3 48 -4.6 23.8
23:55 1012 29.88 841 24.83 5.6 42.1 49 -4.3 24.2
24:00 1012 29.88 841 24.83 5.4 41.7 50 -4.3 24.3